createdAt,value
2018-04-26T00:04:31.110Z,83
2018-04-26T00:09:57.855Z,83
2018-04-26T00:15:25.613Z,83
2018-04-26T00:20:52.394Z,83
2018-04-26T00:26:20.265Z,83
2018-04-26T00:31:46.898Z,83
2018-04-26T00:37:14.694Z,83
2018-04-26T00:42:41.503Z,83
2018-04-26T00:48:08.296Z,83
2018-04-26T00:53:35.981Z,83
2018-04-26T00:59:02.766Z,83
2018-04-26T01:04:29.513Z,83
2018-04-26T01:09:56.351Z,83
2018-04-26T01:15:23.078Z,83
2018-04-26T01:20:49.806Z,83
2018-04-26T01:26:17.529Z,84
2018-04-26T01:31:44.302Z,84
2018-04-26T01:37:11.985Z,84
2018-04-26T01:42:39.703Z,84
2018-04-26T01:48:07.483Z,84
2018-04-26T01:53:34.388Z,84
2018-04-26T01:59:00.870Z,84
2018-04-26T02:04:28.593Z,84
2018-04-26T02:09:56.359Z,84
2018-04-26T02:15:24.117Z,84
2018-04-26T02:20:51.916Z,84
2018-04-26T02:26:18.633Z,84
2018-04-26T02:31:45.475Z,84
2018-04-26T02:37:12.965Z,84
2018-04-26T02:42:40.685Z,84
2018-04-26T02:48:08.431Z,84
2018-04-26T02:53:36.516Z,84
2018-04-26T02:59:02.824Z,84
2018-04-26T03:04:30.481Z,84
2018-04-26T03:09:58.290Z,84
2018-04-26T03:15:24.835Z,84
2018-04-26T03:20:51.440Z,84
2018-04-26T03:26:18.273Z,84
2018-04-26T03:31:45.828Z,84
2018-04-26T03:37:12.442Z,84
2018-04-26T03:42:40.122Z,84
2018-04-26T03:48:06.744Z,84
2018-04-26T03:53:33.391Z,84
2018-04-26T03:59:00.278Z,84
2018-04-26T04:04:27.724Z,84
2018-04-26T04:09:55.382Z,84
2018-04-26T04:15:22.998Z,84
2018-04-26T04:20:51.123Z,84
2018-04-26T04:26:17.296Z,84
2018-04-26T04:31:44.171Z,84
2018-04-26T04:37:11.710Z,84
2018-04-26T04:42:39.298Z,84
2018-04-26T04:48:05.913Z,84
2018-04-26T04:53:33.561Z,84
2018-04-26T04:59:00.251Z,84
2018-04-26T05:04:27.959Z,84
2018-04-26T05:09:55.635Z,84
2018-04-26T05:15:22.401Z,84
2018-04-26T05:20:49.097Z,84
2018-04-26T05:26:15.763Z,84
2018-04-26T05:31:42.545Z,84
2018-04-26T05:37:09.212Z,84
2018-04-26T05:42:35.958Z,84
2018-04-26T05:48:03.810Z,84
2018-04-26T05:53:30.438Z,84
2018-04-26T05:58:57.209Z,84
2018-04-26T06:04:24.003Z,84
2018-04-26T06:09:50.726Z,85
2018-04-26T06:15:18.505Z,85
2018-04-26T06:20:45.303Z,85
2018-04-26T06:26:12.207Z,85
2018-04-26T06:31:39.839Z,85
2018-04-26T06:37:12.622Z,85
2018-04-26T06:42:34.409Z,84
2018-04-26T06:48:01.335Z,85
2018-04-26T06:53:28.104Z,84
2018-04-26T06:58:55.848Z,84
2018-04-26T07:04:23.664Z,84
2018-04-26T07:09:51.583Z,84
2018-04-26T07:15:18.359Z,84
2018-04-26T07:20:45.221Z,84
2018-04-26T07:26:12.155Z,84
2018-04-26T07:31:39.981Z,84
2018-04-26T07:37:07.808Z,84
2018-04-26T07:42:35.775Z,84
2018-04-26T07:48:02.585Z,84
2018-04-26T07:53:30.555Z,84
2018-04-26T07:58:58.372Z,84
2018-04-26T08:04:25.271Z,83
2018-04-26T08:09:52.215Z,83
2018-04-26T08:15:18.957Z,82
2018-04-26T08:20:45.946Z,82
2018-04-26T08:26:12.877Z,82
2018-04-26T08:31:40.811Z,82
2018-04-26T08:37:08.773Z,82
2018-04-26T08:42:36.694Z,82
2018-04-26T08:53:30.673Z,82
2018-04-26T08:58:57.712Z,82
2018-04-26T09:04:24.548Z,81
2018-04-26T09:09:51.544Z,81
2018-04-26T09:20:46.543Z,81
2018-04-26T09:31:41.627Z,81
2018-04-26T09:37:09.520Z,81
2018-04-26T09:42:37.975Z,80
2018-04-26T09:48:04.678Z,80
2018-04-26T09:53:33.080Z,81
2018-04-26T09:58:59.429Z,81
2018-04-26T10:04:26.411Z,80
2018-04-26T10:09:54.790Z,79
2018-04-26T10:15:22.523Z,79
2018-04-26T10:20:49.549Z,80
2018-04-26T10:26:17.584Z,79
2018-04-26T10:31:44.612Z,79
2018-04-26T10:37:12.674Z,78
2018-04-26T10:42:39.828Z,78
2018-04-26T10:48:06.826Z,79
2018-04-26T10:53:35.018Z,79
2018-04-26T10:59:02.023Z,78
2018-04-26T11:04:30.163Z,78
2018-04-26T11:09:57.231Z,78
2018-04-26T11:15:24.375Z,77
2018-04-26T11:20:52.420Z,77
2018-04-26T11:26:20.673Z,77
2018-04-26T11:31:47.507Z,77
2018-04-26T11:37:14.669Z,77
2018-04-26T11:42:41.703Z,77
2018-04-26T11:48:09.712Z,77
2018-04-26T11:53:37.787Z,76
2018-04-26T11:59:05.936Z,76
2018-04-26T12:04:32.994Z,76
2018-04-26T12:10:00.177Z,76
2018-04-26T12:15:27.377Z,75
2018-04-26T12:20:54.253Z,76
2018-04-26T12:26:22.440Z,75
2018-04-26T12:31:50.404Z,75
2018-04-26T12:37:18.427Z,76
2018-04-26T12:42:45.622Z,75
2018-04-26T12:48:12.665Z,75
2018-04-26T12:53:39.623Z,75
2018-04-26T12:59:06.575Z,74
2018-04-26T13:04:34.700Z,74
2018-04-26T13:10:02.831Z,73
2018-04-26T13:15:30.768Z,74
2018-04-26T13:20:58.029Z,74
2018-04-26T13:26:25.889Z,73
2018-04-26T13:31:52.955Z,73
2018-04-26T13:37:21.178Z,72
2018-04-26T13:42:48.385Z,72
2018-04-26T13:48:16.337Z,73
2018-04-26T13:53:44.467Z,73
2018-04-26T13:59:12.488Z,72
2018-04-26T14:04:39.655Z,72
2018-04-26T14:10:06.675Z,72
2018-04-26T14:15:34.710Z,72
2018-04-26T14:21:02.974Z,72
2018-04-26T14:26:30.825Z,72
2018-04-26T14:31:59.155Z,72
2018-04-26T14:37:26.897Z,71
2018-04-26T14:42:54.850Z,71
2018-04-26T14:48:23.001Z,71
2018-04-26T14:53:51.112Z,71
2018-04-26T14:59:18.112Z,71
2018-04-26T15:04:45.288Z,71
2018-04-26T15:10:12.068Z,71
2018-04-26T15:15:40.266Z,71
2018-04-26T15:21:07.308Z,70
2018-04-26T15:26:35.242Z,71
2018-04-26T15:32:03.342Z,70
2018-04-26T15:37:31.431Z,70
2018-04-26T15:42:58.446Z,70
2018-04-26T15:48:25.507Z,70
2018-04-26T15:53:53.473Z,70
2018-04-26T15:59:20.510Z,70
2018-04-26T16:04:47.494Z,70
2018-04-26T16:10:14.520Z,70
2018-04-26T16:15:41.481Z,70
2018-04-26T16:21:08.433Z,70
2018-04-26T16:26:36.425Z,71
2018-04-26T16:32:03.433Z,71
2018-04-26T16:37:30.308Z,71
2018-04-26T16:42:58.404Z,70
2018-04-26T16:48:26.113Z,70
2018-04-26T16:53:54.154Z,70
2018-04-26T16:59:20.977Z,70
2018-04-26T17:04:48.046Z,70
2018-04-26T17:10:15.807Z,71
2018-04-26T17:15:42.681Z,70
2018-04-26T17:21:10.614Z,70
2018-04-26T17:26:37.528Z,70
2018-04-26T17:32:04.377Z,71
2018-04-26T17:37:32.220Z,70
2018-04-26T17:42:59.138Z,71
2018-04-26T17:48:26.174Z,71
2018-04-26T17:53:52.854Z,71
2018-04-26T17:59:20.889Z,71
2018-04-26T18:04:47.574Z,71
2018-04-26T18:10:15.428Z,71
2018-04-26T18:15:43.262Z,71
2018-04-26T18:21:11.110Z,71
2018-04-26T18:26:38.893Z,72
2018-04-26T18:32:06.865Z,72
2018-04-26T18:37:33.650Z,72
2018-04-26T18:43:01.483Z,72
2018-04-26T18:48:29.405Z,72
2018-04-26T18:53:56.224Z,72
2018-04-26T18:59:23.961Z,72
2018-04-26T19:04:50.694Z,73
2018-04-26T19:10:17.474Z,73
2018-04-26T19:15:44.411Z,73
2018-04-26T19:21:11.148Z,73
2018-04-26T19:26:37.999Z,73
2018-04-26T19:32:04.626Z,73
2018-04-26T19:37:32.710Z,73
2018-04-26T19:42:59.310Z,73
2018-04-26T19:48:27.090Z,73
2018-04-26T19:53:53.879Z,74
2018-04-26T19:59:20.584Z,74
2018-04-26T20:04:47.360Z,74
2018-04-26T20:10:14.158Z,74
2018-04-26T20:15:40.896Z,74
2018-04-26T20:21:07.677Z,74
2018-04-26T20:26:35.366Z,74
2018-04-26T20:32:03.208Z,74
2018-04-26T20:37:30.888Z,74
2018-04-26T20:42:57.680Z,74
2018-04-26T20:48:25.502Z,74
2018-04-26T20:53:53.249Z,74
2018-04-26T20:59:20.983Z,74
2018-04-26T21:04:47.813Z,74
2018-04-26T21:10:15.504Z,75
2018-04-26T21:15:42.230Z,75
2018-04-26T21:21:09.987Z,75
2018-04-26T21:26:36.907Z,75
2018-04-26T21:32:04.671Z,75
2018-04-26T21:37:31.303Z,75
2018-04-26T21:42:58.045Z,75
2018-04-26T21:48:25.732Z,75
2018-04-26T21:53:53.544Z,76
2018-04-26T21:59:20.233Z,76
2018-04-26T22:04:46.951Z,76
2018-04-26T22:10:14.772Z,76
2018-04-26T22:15:42.383Z,76
2018-04-26T22:21:10.198Z,76
2018-04-26T22:26:36.880Z,76
2018-04-26T22:32:04.608Z,76
2018-04-26T22:37:32.337Z,76
2018-04-26T22:42:59.059Z,76
2018-04-26T22:48:25.738Z,76
2018-04-26T22:53:52.459Z,76
2018-04-26T22:59:20.285Z,76
2018-04-26T23:04:46.876Z,76
2018-04-26T23:10:13.815Z,76
2018-04-26T23:15:40.338Z,76
2018-04-26T23:21:07.058Z,76
2018-04-26T23:26:33.766Z,76
2018-04-26T23:32:01.527Z,76
2018-04-26T23:37:28.319Z,76
2018-04-26T23:42:54.979Z,76
2018-04-26T23:48:21.831Z,76
2018-04-26T23:53:48.469Z,76
2018-04-26T23:59:15.224Z,76
